createdAt,value
2018-09-18T00:00:04.873Z,82.23
2018-09-18T00:02:31.759Z,81.74
2018-09-18T00:04:58.683Z,82.60
2018-09-18T00:07:25.582Z,82.40
2018-09-18T00:09:52.509Z,82.92
2018-09-18T00:12:19.404Z,82.76
2018-09-18T00:14:46.328Z,83.11
2018-09-18T00:17:13.211Z,83.33
2018-09-18T00:19:40.109Z,83.22
2018-09-18T00:22:07.012Z,83.35
2018-09-18T00:24:33.921Z,83.24
2018-09-18T00:27:00.822Z,83.21
2018-09-18T00:29:27.722Z,83.38
2018-09-18T00:31:54.629Z,83.73
2018-09-18T00:34:21.539Z,83.71
2018-09-18T00:36:48.429Z,83.55
2018-09-18T00:39:15.323Z,83.42
2018-09-18T00:41:42.232Z,83.37
2018-09-18T00:44:09.153Z,83.28
2018-09-18T00:46:36.059Z,83.56
2018-09-18T00:49:02.975Z,83.59
2018-09-18T00:51:29.875Z,83.82
2018-09-18T00:53:56.775Z,83.55
2018-09-18T00:56:23.673Z,83.94
2018-09-18T00:58:50.568Z,84.17
2018-09-18T01:01:17.482Z,84.37
2018-09-18T01:03:44.889Z,83.71
2018-09-18T01:06:12.003Z,84.16
2018-09-18T01:08:39.009Z,83.63
2018-09-18T01:11:05.917Z,83.53
2018-09-18T01:13:32.800Z,83.69
2018-09-18T01:15:59.695Z,84.03
2018-09-18T01:18:33.992Z,83.81
2018-09-18T01:21:00.937Z,83.83
2018-09-18T01:23:27.824Z,84.23
2018-09-18T01:25:54.733Z,83.79
2018-09-18T01:28:21.644Z,83.89
2018-09-18T01:30:48.540Z,83.33
2018-09-18T01:33:15.436Z,83.61
2018-09-18T01:35:42.335Z,83.27
2018-09-18T01:38:09.220Z,83.35
2018-09-18T01:40:36.111Z,83.55
2018-09-18T01:43:03.004Z,83.20
2018-09-18T01:45:29.896Z,83.10
2018-09-18T01:47:56.787Z,83.39
2018-09-18T01:50:23.687Z,83.26
2018-09-18T01:52:50.572Z,82.89
2018-09-18T01:55:17.480Z,83.21
2018-09-18T01:57:44.369Z,82.99
2018-09-18T02:00:11.296Z,83.23
2018-09-18T02:02:38.192Z,82.97
2018-09-18T02:05:05.120Z,83.31
2018-09-18T02:07:32.016Z,82.97
2018-09-18T02:09:58.924Z,83.13
2018-09-18T02:12:25.809Z,83.32
2018-09-18T02:14:52.712Z,83.03
2018-09-18T02:17:19.596Z,83.05
2018-09-18T02:19:46.517Z,83.27
2018-09-18T02:22:13.408Z,83.45
2018-09-18T02:24:40.298Z,83.56
2018-09-18T02:27:07.186Z,83.55
2018-09-18T02:29:34.128Z,83.71
2018-09-18T02:32:01.068Z,83.67
2018-09-18T02:34:27.980Z,83.73
2018-09-18T02:36:54.879Z,83.43
2018-09-18T02:39:21.757Z,83.37
2018-09-18T02:41:48.655Z,83.20
2018-09-18T02:44:15.585Z,83.27
2018-09-18T02:46:42.524Z,83.05
2018-09-18T02:49:09.433Z,83.08
2018-09-18T02:51:36.337Z,82.34
2018-09-18T02:54:03.225Z,82.67
2018-09-18T02:56:30.124Z,82.57
2018-09-18T02:58:57.013Z,82.58
2018-09-18T03:01:23.909Z,83.22
2018-09-18T03:03:50.880Z,82.88
2018-09-18T03:06:17.776Z,82.81
2018-09-18T03:08:44.656Z,82.82
2018-09-18T03:11:11.572Z,82.94
2018-09-18T03:13:38.475Z,83.01
2018-09-18T03:16:05.385Z,83.02
2018-09-18T03:18:32.288Z,83.29
2018-09-18T03:20:59.274Z,82.94
2018-09-18T03:23:26.150Z,82.98
2018-09-18T03:25:53.052Z,82.79
2018-09-18T03:28:20.791Z,82.70
2018-09-18T03:30:47.742Z,82.37
2018-09-18T03:33:14.757Z,82.30
2018-09-18T03:35:41.699Z,82.28
2018-09-18T03:38:08.548Z,82.29
2018-09-18T03:40:35.447Z,82.65
2018-09-18T03:43:02.359Z,82.75
2018-09-18T03:45:29.264Z,83.31
2018-09-18T03:47:56.164Z,83.51
2018-09-18T03:50:23.061Z,83.07
2018-09-18T03:52:49.956Z,82.91
2018-09-18T03:55:16.867Z,83.06
2018-09-18T03:57:43.767Z,82.70
2018-09-18T04:00:10.689Z,82.84
2018-09-18T04:02:37.572Z,83.07
2018-09-18T04:05:04.485Z,82.62
2018-09-18T04:07:31.397Z,82.26
2018-09-18T04:09:58.281Z,82.25
2018-09-18T04:12:25.181Z,82.31
2018-09-18T04:14:52.061Z,82.09
2018-09-18T04:17:19.201Z,81.98
2018-09-18T04:19:46.115Z,82.53
2018-09-18T04:22:13.008Z,82.44
2018-09-18T04:24:39.896Z,82.33
2018-09-18T04:27:06.790Z,82.48
2018-09-18T04:29:33.665Z,82.72
2018-09-18T04:32:07.345Z,82.83
2018-09-18T04:34:34.246Z,83.10
2018-09-18T04:37:01.153Z,82.99
2018-09-18T04:39:28.047Z,82.84
2018-09-18T04:41:54.949Z,82.72
2018-09-18T04:44:21.844Z,83.28
2018-09-18T04:46:48.746Z,83.34
2018-09-18T04:49:15.648Z,83.34
2018-09-18T04:51:42.643Z,83.83
2018-09-18T04:54:09.528Z,83.75
2018-09-18T04:56:36.427Z,84.16
2018-09-18T04:59:03.316Z,84.42
2018-09-18T05:01:30.223Z,84.50
2018-09-18T05:03:57.149Z,84.70
2018-09-18T05:06:24.040Z,84.85
2018-09-18T05:08:50.948Z,84.45
2018-09-18T05:11:17.861Z,85.08
2018-09-18T05:13:44.768Z,84.81
2018-09-18T05:16:11.666Z,84.59
2018-09-18T05:18:38.593Z,84.64
2018-09-18T05:21:05.487Z,84.68
2018-09-18T05:23:32.386Z,85.13
2018-09-18T05:25:59.285Z,84.99
2018-09-18T05:28:26.202Z,84.97
2018-09-18T05:30:53.117Z,84.89
2018-09-18T05:33:20.037Z,84.84
2018-09-18T05:35:46.940Z,85.02
2018-09-18T05:38:14.069Z,85.02
2018-09-18T05:40:40.971Z,85.14
2018-09-18T05:43:07.867Z,85.00
2018-09-18T05:45:34.776Z,85.20
2018-09-18T05:48:01.702Z,85.02
2018-09-18T05:50:28.599Z,84.56
2018-09-18T05:52:55.589Z,84.34
2018-09-18T05:55:22.471Z,84.66
2018-09-18T05:57:49.372Z,84.74
2018-09-18T06:00:16.296Z,84.89
2018-09-18T06:02:43.201Z,84.44
2018-09-18T06:05:10.088Z,84.70
2018-09-18T06:07:37.344Z,84.76
2018-09-18T06:10:04.732Z,84.93
2018-09-18T06:12:31.722Z,84.20
2018-09-18T06:14:58.520Z,83.95
2018-09-18T06:17:25.411Z,83.31
2018-09-18T06:19:52.298Z,82.98
2018-09-18T06:22:19.196Z,82.53
2018-09-18T06:24:46.091Z,82.69
2018-09-18T06:27:12.974Z,82.45
2018-09-18T06:29:39.852Z,82.45
2018-09-18T06:32:06.723Z,82.34
2018-09-18T06:34:33.595Z,82.20
2018-09-18T06:37:00.562Z,82.23
2018-09-18T06:39:27.364Z,82.55
2018-09-18T06:41:54.244Z,81.31
2018-09-18T06:44:21.119Z,81.09
2018-09-18T06:46:47.992Z,80.50
2018-09-18T06:49:14.867Z,79.90
2018-09-18T06:51:41.762Z,78.61
2018-09-18T06:54:08.657Z,79.28
2018-09-18T06:56:35.520Z,78.51
2018-09-18T06:59:02.412Z,77.07
2018-09-18T07:01:29.351Z,77.21
2018-09-18T07:03:56.232Z,76.53
2018-09-18T07:06:23.101Z,75.47
2018-09-18T07:08:49.983Z,73.95
2018-09-18T07:11:16.906Z,73.12
2018-09-18T07:13:43.816Z,73.56
2018-09-18T07:16:10.695Z,72.22
2018-09-18T07:18:37.582Z,72.24
2018-09-18T07:21:04.741Z,71.70
2018-09-18T07:23:31.661Z,71.59
2018-09-18T07:25:58.528Z,70.80
2018-09-18T07:28:25.403Z,69.64
2018-09-18T07:30:52.320Z,69.68
2018-09-18T07:33:19.236Z,66.98
2018-09-18T07:35:46.110Z,63.94
2018-09-18T07:38:13.014Z,63.67
2018-09-18T07:40:39.895Z,61.86
2018-09-18T07:43:06.788Z,60.88
2018-09-18T07:45:33.676Z,61.71
2018-09-18T07:48:00.548Z,60.59
2018-09-18T07:50:27.433Z,59.52
2018-09-18T07:52:54.320Z,58.72
2018-09-18T07:55:21.213Z,57.33
2018-09-18T07:57:48.104Z,58.63
2018-09-18T08:00:15.041Z,55.89
2018-09-18T08:02:41.948Z,56.95
2018-09-18T08:05:08.895Z,57.30
2018-09-18T08:07:35.780Z,56.38
2018-09-18T08:10:02.764Z,55.00
2018-09-18T08:12:29.645Z,53.47
2018-09-18T08:14:56.533Z,53.80
2018-09-18T08:17:23.406Z,54.09
2018-09-18T08:19:50.339Z,54.83
2018-09-18T08:22:17.188Z,51.39
2018-09-18T08:24:44.177Z,52.29
2018-09-18T08:27:11.055Z,51.66
2018-09-18T08:29:37.952Z,52.81
2018-09-18T08:32:04.897Z,52.00
2018-09-18T08:34:31.813Z,52.17
2018-09-18T08:36:58.680Z,50.48
2018-09-18T08:39:25.598Z,50.68
2018-09-18T08:41:52.524Z,50.02
2018-09-18T08:44:19.439Z,50.74
2018-09-18T08:46:46.323Z,49.33
2018-09-18T08:49:13.205Z,50.67
2018-09-18T08:51:40.104Z,49.07
2018-09-18T08:54:07.007Z,49.24
2018-09-18T08:56:33.903Z,47.62
2018-09-18T08:59:00.797Z,48.28
2018-09-18T09:01:27.688Z,46.89
2018-09-18T09:03:54.564Z,47.09
2018-09-18T09:06:21.510Z,47.42
2018-09-18T09:08:48.466Z,47.79
2018-09-18T09:11:15.305Z,47.67
2018-09-18T09:13:42.217Z,46.05
2018-09-18T09:16:09.139Z,46.71
2018-09-18T09:18:36.081Z,46.79
2018-09-18T09:21:02.995Z,46.55
2018-09-18T09:23:30.335Z,45.58
2018-09-18T09:25:57.239Z,44.58
2018-09-18T09:28:24.135Z,45.74
2018-09-18T09:30:51.048Z,45.18
2018-09-18T09:33:17.985Z,46.83
2018-09-18T09:35:44.868Z,44.58
2018-09-18T09:38:11.783Z,45.84
2018-09-18T09:40:38.668Z,44.21
2018-09-18T09:43:05.607Z,45.04
2018-09-18T09:45:32.513Z,43.70
2018-09-18T09:47:59.420Z,45.89
2018-09-18T09:50:26.321Z,44.05
2018-09-18T09:52:53.241Z,43.79
2018-09-18T09:55:20.142Z,43.11
2018-09-18T09:57:47.058Z,43.15
2018-09-18T10:00:19.894Z,42.77
2018-09-18T10:02:47.511Z,42.11
2018-09-18T10:05:15.281Z,43.75
2018-09-18T10:07:42.419Z,42.81
2018-09-18T10:10:09.332Z,42.46
2018-09-18T10:12:36.204Z,42.67
2018-09-18T10:15:03.109Z,41.83
2018-09-18T10:17:29.984Z,42.57
2018-09-18T10:19:56.871Z,41.11
2018-09-18T10:22:23.751Z,43.87
2018-09-18T10:24:50.620Z,40.18
2018-09-18T10:27:17.548Z,41.68
2018-09-18T10:29:44.423Z,43.50
2018-09-18T10:32:11.316Z,42.13
2018-09-18T10:34:38.192Z,42.60
2018-09-18T10:37:05.119Z,39.10
2018-09-18T10:39:32.015Z,39.92
2018-09-18T10:41:59.007Z,38.42
2018-09-18T10:44:25.790Z,39.75
2018-09-18T10:46:52.718Z,38.79
2018-09-18T10:49:19.586Z,39.90
2018-09-18T10:51:46.463Z,39.67
2018-09-18T10:54:13.357Z,39.95
2018-09-18T10:56:40.253Z,37.91
2018-09-18T10:59:07.140Z,38.20
2018-09-18T11:01:34.062Z,39.38
2018-09-18T11:04:00.957Z,40.19
2018-09-18T11:06:27.837Z,38.88
2018-09-18T11:08:54.741Z,38.65
2018-09-18T11:11:21.657Z,36.70
2018-09-18T11:13:48.596Z,37.78
2018-09-18T11:16:15.524Z,38.15
2018-09-18T11:18:42.329Z,37.28
2018-09-18T11:21:09.228Z,38.18
2018-09-18T11:23:36.100Z,38.38
2018-09-18T11:26:02.976Z,36.28
2018-09-18T11:28:29.885Z,36.41
2018-09-18T11:30:56.787Z,37.18
2018-09-18T11:33:23.675Z,36.05
2018-09-18T11:35:50.555Z,36.34
2018-09-18T11:38:17.534Z,35.41
2018-09-18T11:40:44.405Z,37.01
2018-09-18T11:43:11.289Z,36.69
2018-09-18T11:45:38.241Z,37.77
2018-09-18T11:48:05.056Z,37.05
2018-09-18T11:50:31.937Z,36.20
2018-09-18T11:52:59.616Z,37.38
2018-09-18T11:55:26.504Z,35.67
2018-09-18T11:57:53.433Z,34.68
2018-09-18T12:00:20.392Z,35.68
2018-09-18T12:02:47.311Z,35.61
2018-09-18T12:05:14.263Z,36.14
2018-09-18T12:07:41.398Z,36.18
2018-09-18T12:10:08.308Z,34.57
2018-09-18T12:12:35.196Z,34.88
2018-09-18T12:15:02.084Z,34.43
2018-09-18T12:17:28.975Z,34.35
2018-09-18T12:19:55.866Z,35.97
2018-09-18T12:22:22.838Z,35.00
2018-09-18T12:24:49.741Z,35.59
2018-09-18T12:27:16.978Z,34.91
2018-09-18T12:29:43.924Z,34.17
2018-09-18T12:32:10.844Z,35.67
2018-09-18T12:37:11.536Z,33.88
2018-09-18T12:39:38.460Z,34.59
2018-09-18T12:42:05.517Z,33.58
2018-09-18T12:44:32.448Z,33.13
2018-09-18T12:46:59.348Z,34.07
2018-09-18T12:49:26.356Z,34.29
2018-09-18T12:51:53.136Z,34.15
2018-09-18T12:54:20.032Z,33.40
2018-09-18T12:56:46.994Z,34.02
2018-09-18T12:59:13.901Z,34.16
2018-09-18T13:01:40.772Z,32.56
2018-09-18T13:04:07.672Z,32.78
2018-09-18T13:06:34.772Z,32.49
2018-09-18T13:09:01.477Z,32.89
2018-09-18T13:11:28.378Z,33.30
2018-09-18T13:13:55.333Z,31.55
2018-09-18T13:16:22.215Z,31.51
2018-09-18T13:18:49.103Z,31.47
2018-09-18T13:21:15.997Z,30.66
2018-09-18T13:23:43.009Z,31.23
2018-09-18T13:26:09.944Z,30.89
2018-09-18T13:28:36.869Z,30.54
2018-09-18T13:31:03.777Z,31.14
2018-09-18T13:33:30.654Z,31.47
2018-09-18T13:35:57.545Z,31.30
2018-09-18T13:38:24.436Z,31.44
2018-09-18T13:40:51.386Z,31.72
2018-09-18T13:43:18.215Z,32.27
2018-09-18T13:45:45.084Z,31.82
2018-09-18T13:48:11.981Z,31.65
2018-09-18T13:50:38.864Z,32.75
2018-09-18T13:53:05.786Z,34.36
2018-09-18T13:55:32.721Z,33.52
2018-09-18T13:57:59.586Z,32.52
2018-09-18T14:00:26.492Z,33.11
2018-09-18T14:02:53.363Z,33.23
2018-09-18T14:05:20.244Z,33.11
2018-09-18T14:07:47.120Z,34.28
2018-09-18T14:10:15.020Z,34.19
2018-09-18T14:12:41.893Z,34.93
2018-09-18T14:15:08.912Z,33.30
2018-09-18T14:17:35.749Z,34.13
2018-09-18T14:20:02.882Z,34.35
2018-09-18T14:22:29.763Z,33.49
2018-09-18T14:24:56.647Z,33.09
2018-09-18T14:27:23.521Z,33.44
2018-09-18T14:29:50.425Z,33.62
2018-09-18T14:32:17.447Z,34.53
2018-09-18T14:34:44.283Z,33.50
2018-09-18T14:37:11.156Z,34.17
2018-09-18T14:39:38.041Z,34.72
2018-09-18T14:42:04.925Z,34.34
2018-09-18T14:44:31.817Z,34.93
2018-09-18T14:46:58.801Z,36.02
2018-09-18T14:49:25.634Z,35.23
2018-09-18T14:51:52.612Z,35.52
2018-09-18T14:54:19.508Z,36.30
2018-09-18T14:56:46.391Z,35.06
2018-09-18T14:59:13.289Z,34.69
2018-09-18T15:01:40.180Z,33.39
2018-09-18T15:04:07.096Z,33.49
2018-09-18T15:06:33.980Z,33.42
2018-09-18T15:09:00.900Z,34.41
2018-09-18T15:11:27.801Z,34.45
2018-09-18T15:13:54.681Z,35.64
2018-09-18T15:16:21.576Z,35.20
2018-09-18T15:18:48.462Z,34.93
2018-09-18T15:21:15.345Z,36.33
2018-09-18T15:23:42.236Z,34.79
2018-09-18T15:26:09.141Z,34.23
2018-09-18T15:28:36.028Z,35.66
2018-09-18T15:31:02.968Z,35.86
2018-09-18T15:33:29.882Z,34.34
2018-09-18T15:35:56.752Z,36.71
2018-09-18T15:38:23.624Z,37.15
2018-09-18T15:40:50.532Z,35.58
2018-09-18T15:43:17.451Z,36.40
2018-09-18T15:45:44.446Z,37.38
2018-09-18T15:48:11.218Z,37.74
2018-09-18T15:50:38.107Z,35.51
2018-09-18T15:53:04.999Z,35.99
2018-09-18T15:55:31.901Z,35.97
2018-09-18T15:57:58.849Z,36.20
2018-09-18T16:00:25.655Z,35.82
2018-09-18T16:02:52.551Z,35.56
2018-09-18T16:05:19.458Z,36.80
2018-09-18T16:07:46.337Z,37.21
2018-09-18T16:10:13.216Z,37.13
2018-09-18T16:12:40.105Z,36.92
2018-09-18T16:15:07.057Z,37.63
2018-09-18T16:17:34.477Z,38.61
2018-09-18T16:20:01.412Z,44.43
2018-09-18T16:22:28.291Z,46.43
2018-09-18T16:24:55.237Z,47.88
2018-09-18T16:27:22.073Z,49.75
2018-09-18T16:29:48.976Z,50.96
2018-09-18T16:32:16.057Z,51.15
2018-09-18T16:34:42.937Z,53.00
2018-09-18T16:37:09.836Z,53.23
2018-09-18T16:39:36.709Z,55.03
2018-09-18T16:42:03.631Z,54.81
2018-09-18T16:44:30.512Z,54.94
2018-09-18T16:46:57.485Z,55.26
2018-09-18T16:49:24.389Z,56.03
2018-09-18T16:51:51.321Z,56.70
2018-09-18T16:54:18.367Z,57.88
2018-09-18T16:56:45.188Z,58.52
2018-09-18T16:59:12.114Z,59.02
2018-09-18T17:01:39.075Z,59.32
2018-09-18T17:04:05.937Z,59.87
2018-09-18T17:06:33.026Z,60.23
2018-09-18T17:08:59.882Z,60.52
2018-09-18T17:11:26.937Z,60.62
2018-09-18T17:13:53.893Z,61.15
2018-09-18T17:16:20.803Z,62.45
2018-09-18T17:18:47.654Z,62.31
2018-09-18T17:21:14.551Z,62.48
2018-09-18T17:23:41.440Z,62.57
2018-09-18T17:26:08.332Z,63.51
2018-09-18T17:28:35.235Z,63.86
2018-09-18T17:31:02.121Z,64.77
2018-09-18T17:33:28.997Z,65.69
2018-09-18T17:35:55.875Z,65.62
2018-09-18T17:38:22.761Z,66.40
2018-09-18T17:40:49.652Z,66.72
2018-09-18T17:43:16.518Z,67.30
2018-09-18T17:45:43.388Z,67.86
2018-09-18T17:48:10.251Z,68.21
2018-09-18T17:50:37.147Z,69.25
2018-09-18T17:53:04.041Z,69.10
2018-09-18T17:55:30.935Z,70.06
2018-09-18T17:57:57.814Z,69.58
2018-09-18T18:00:25.541Z,69.92
2018-09-18T18:05:30.927Z,71.61
2018-09-18T18:08:01.252Z,70.81
2018-09-18T18:10:29.745Z,71.96
2018-09-18T18:12:56.641Z,72.34
2018-09-18T18:15:23.543Z,72.98
2018-09-18T18:17:50.445Z,74.03
2018-09-18T18:20:17.419Z,74.57
2018-09-18T18:22:44.284Z,73.87
2018-09-18T18:25:11.192Z,74.95
2018-09-18T18:27:38.089Z,74.89
2018-09-18T18:30:05.224Z,74.48
2018-09-18T18:32:32.144Z,75.43
2018-09-18T18:34:59.035Z,75.84
2018-09-18T18:37:25.939Z,75.50
2018-09-18T18:39:52.833Z,76.18
2018-09-18T18:42:19.732Z,76.22
2018-09-18T18:44:46.716Z,75.91
2018-09-18T18:47:13.613Z,76.02
2018-09-18T18:49:40.511Z,76.90
2018-09-18T18:52:07.428Z,76.65
2018-09-18T18:54:34.374Z,76.85
2018-09-18T18:57:01.299Z,77.16
2018-09-18T18:59:28.136Z,77.66
2018-09-18T19:01:55.044Z,77.48
2018-09-18T19:04:21.947Z,77.25
2018-09-18T19:06:48.930Z,77.64
2018-09-18T19:09:15.769Z,78.71
2018-09-18T19:11:42.691Z,78.35
2018-09-18T19:14:09.600Z,78.33
2018-09-18T19:16:36.491Z,78.44
2018-09-18T19:19:03.399Z,78.28
2018-09-18T19:21:30.289Z,78.24
2018-09-18T19:23:57.214Z,77.63
2018-09-18T19:26:24.089Z,77.67
2018-09-18T19:28:50.981Z,79.27
2018-09-18T19:31:17.876Z,78.52
2018-09-18T19:33:44.787Z,78.60
2018-09-18T19:36:11.685Z,79.11
2018-09-18T19:38:38.572Z,80.01
2018-09-18T19:41:05.480Z,79.49
2018-09-18T19:43:32.356Z,80.26
2018-09-18T19:45:59.577Z,80.53
2018-09-18T19:48:27.197Z,79.95
2018-09-18T19:50:54.594Z,80.12
2018-09-18T19:53:22.001Z,80.10
2018-09-18T19:55:49.374Z,80.44
2018-09-18T19:58:16.497Z,81.27
2018-09-18T20:00:43.540Z,80.54
2018-09-18T20:03:10.524Z,81.52
2018-09-18T20:05:37.568Z,80.81
2018-09-18T20:08:04.800Z,80.68
2018-09-18T20:10:31.988Z,81.11
2018-09-18T20:12:59.101Z,81.37
2018-09-18T20:15:26.148Z,82.13
2018-09-18T20:17:53.226Z,80.97
2018-09-18T20:20:20.289Z,81.58
2018-09-18T20:22:47.472Z,81.81
2018-09-18T20:25:14.619Z,82.05
2018-09-18T20:27:41.688Z,81.28
2018-09-18T20:30:08.910Z,81.61
2018-09-18T20:32:35.817Z,81.32
2018-09-18T20:35:02.757Z,81.52
2018-09-18T20:37:29.695Z,80.82
2018-09-18T20:39:56.617Z,80.16
2018-09-18T20:42:23.528Z,80.04
2018-09-18T20:44:50.505Z,80.26
2018-09-18T20:47:17.380Z,80.07
2018-09-18T20:49:44.279Z,80.20
2018-09-18T20:52:11.178Z,80.13
2018-09-18T20:54:38.076Z,79.26
2018-09-18T20:57:05.000Z,79.52
2018-09-18T20:59:31.906Z,78.79
2018-09-18T21:01:58.818Z,77.97
2018-09-18T21:04:25.713Z,77.43
2018-09-18T21:06:52.627Z,77.25
2018-09-18T21:09:19.530Z,77.07
2018-09-18T21:11:46.431Z,76.97
2018-09-18T21:14:13.348Z,76.38
2018-09-18T21:16:40.258Z,77.01
2018-09-18T21:19:07.369Z,76.22
2018-09-18T21:21:34.293Z,76.69
2018-09-18T21:24:01.231Z,76.32
2018-09-18T21:26:28.187Z,75.94
2018-09-18T21:28:55.076Z,76.15
2018-09-18T21:31:22.000Z,75.94
2018-09-18T21:33:48.905Z,76.93
2018-09-18T21:36:15.812Z,76.12
2018-09-18T21:38:42.714Z,76.91
2018-09-18T21:41:09.619Z,76.23
2018-09-18T21:43:36.508Z,76.22
2018-09-18T21:46:03.476Z,77.49
2018-09-18T21:48:30.366Z,76.61
2018-09-18T21:50:57.268Z,77.06
2018-09-18T21:53:24.171Z,76.95
2018-09-18T21:55:51.080Z,77.10
2018-09-18T21:58:18.050Z,77.93
2018-09-18T22:00:44.948Z,77.23
2018-09-18T22:03:11.888Z,77.89
2018-09-18T22:05:38.846Z,77.72
2018-09-18T22:08:05.934Z,77.29
2018-09-18T22:10:32.914Z,77.04
2018-09-18T22:13:00.532Z,77.48
2018-09-18T22:15:28.193Z,78.09
2018-09-18T22:17:55.116Z,78.23
2018-09-18T22:20:22.622Z,78.22
2018-09-18T22:22:49.845Z,77.87
2018-09-18T22:25:16.816Z,78.24
2018-09-18T22:27:43.725Z,77.39
2018-09-18T22:30:10.701Z,78.32
2018-09-18T22:32:37.628Z,78.44
2018-09-18T22:35:04.531Z,77.55
2018-09-18T22:37:31.448Z,77.88
2018-09-18T22:39:58.360Z,78.52
2018-09-18T22:42:25.271Z,78.22
2018-09-18T22:44:52.467Z,77.97
2018-09-18T22:47:19.379Z,78.08
2018-09-18T22:49:46.395Z,78.31
2018-09-18T22:52:13.292Z,79.09
2018-09-18T22:54:40.193Z,79.43
2018-09-18T22:57:07.306Z,79.73
2018-09-18T22:59:34.204Z,79.41
2018-09-18T23:02:01.105Z,80.54
2018-09-18T23:04:27.991Z,79.66
2018-09-18T23:06:54.884Z,79.53
2018-09-18T23:09:21.784Z,80.47
2018-09-18T23:11:48.724Z,79.91
2018-09-18T23:14:15.587Z,80.63
2018-09-18T23:16:42.866Z,80.02
2018-09-18T23:19:09.784Z,80.68
2018-09-18T23:21:36.720Z,80.87
2018-09-18T23:24:03.652Z,81.18
2018-09-18T23:26:30.547Z,80.59
2018-09-18T23:28:57.445Z,81.87
2018-09-18T23:31:24.357Z,82.10
2018-09-18T23:33:51.265Z,81.19
2018-09-18T23:36:18.156Z,81.58
2018-09-18T23:38:45.049Z,82.61
2018-09-18T23:41:11.936Z,83.41
2018-09-18T23:43:38.833Z,82.68
2018-09-18T23:46:05.756Z,83.11
2018-09-18T23:48:32.728Z,83.14
2018-09-18T23:50:59.615Z,83.61
2018-09-18T23:53:26.508Z,83.50
2018-09-18T23:55:53.479Z,82.75
2018-09-18T23:58:20.364Z,82.81
